KNYG Airport (Quantico Mcaf /Turner Field) Information

FAA: NYG - ICAO: KNYG

KNYG Airport Location

State Virginia
County Stafford
City Quantico
KNYG Airport is 1 miles south of Quantico, VA.
Latitude 38-30-13.0488N
Longitude 077-18-18.1178W
Elevation 11ft

KNYG Airport METARs

METAR KNYG 262256Z AUTO 32008KT 10SM CLR 04/M07 A2997 RMK AO2 SLP148 T00441072
Altimeter 29.97"
Temperature 4.4°C (39.9°F)
Wind 320° at 8KT
Clouds Skies are clear.
Visibility 10.0mi
Time observed: 2021-11-26T22:56:00Z

KNYG Airport Details

Status Operational
Activation January 1944
Ownership Military - Navy
Usage Private
Chart WASHINGTON
ATC on-site Yes
Beacon schedule sunset-sunrise
Beacon color split clear green

KNYG Airport Contacts

Owner US NAVY
Owner address OCEANOGRAPHIC OFC-CODE 3142, WASHINGTON, DC 20373
Owner phone N/A
Manager CDR R F MCCARTNEY
Manager address CINCLANTFLT CODE(N338), NORFOLK, VA 23511
Manager phone 804-444-5761

KNYG Airport (Quantico Mcaf /Turner Field) Radio Frequencies

KNYG (Airport) Radio Frequencies

UNICOM N/A
Common traffic advisory frequency (CTAF) N/A